Time;durP1;ratioP1;P1;durP2;ratioP2;P2;SDS_P1;SDS_P2;PMS_P1;PMS_P2;Temp;Humidity;BMP_temperature;BMP_pressure;BME280_temperature;BME280_humidity;BME280_pressure;Samples;Min_cycle;Max_cycle;Signal;HPM_P1;HPM_P2
2023/06/16 00:05:31;;;;;;;24.10;19.00;;;;;;;11.78;93.17;98949.58;270892;1269;22283;-84
2023/06/16 00:11:33;;;;;;;26.70;18.90;;;;;;;11.70;93.47;98945.69;272682;1273;22296;-83
2023/06/16 00:17:36;;;;;;;24.40;20.00;;;;;;;11.70;94.01;98939.04;270330;1273;22611;-84
2023/06/16 00:23:38;;;;;;;23.60;18.60;;;;;;;11.71;94.06;98941.31;269164;1267;22594;-83
2023/06/16 00:29:40;;;;;;;21.40;18.50;;;;;;;11.68;94.17;98938.40;268589;1273;22537;-84
2023/06/16 00:36:05;;;;;;;25.20;19.50;;;;;;;11.58;93.91;98932.74;269199;1272;24246;-84
2023/06/16 00:42:27;;;;;;;23.10;17.30;;;;;;;11.39;94.18;98930.97;268695;1273;22698;-83
2023/06/16 00:48:34;;;;;;;21.70;17.10;;;;;;;11.38;95.28;98929.79;269367;1272;22556;-83
2023/06/16 00:54:35;;;;;;;23.80;18.80;;;;;;;11.36;95.14;98924.21;271723;1272;22462;-84
2023/06/16 01:00:37;;;;;;;21.60;16.10;;;;;;;11.31;95.47;98928.17;272176;1262;22728;-84
2023/06/16 01:07:28;;;;;;;24.00;19.20;;;;;;;11.28;95.89;98927.92;272829;1273;22201;-83
2023/06/16 01:14:01;;;;;;;23.70;18.10;;;;;;;11.18;95.55;98927.29;272754;1265;22383;-83
2023/06/16 01:20:08;;;;;;;19.50;16.30;;;;;;;11.02;95.76;98923.58;271632;1272;22562;-82
2023/06/16 01:26:30;;;;;;;24.80;18.90;;;;;;;10.94;96.00;98923.04;269088;1268;24536;-83
2023/06/16 01:32:33;;;;;;;24.10;18.50;;;;;;;10.88;96.41;98916.80;269517;1272;22538;-83
2023/06/16 01:38:35;;;;;;;26.20;17.90;;;;;;;10.85;96.62;98920.23;269554;1272;24229;-84
2023/06/16 01:44:40;;;;;;;21.70;16.50;;;;;;;10.78;96.69;98915.77;269279;1273;22945;-83
2023/06/16 01:50:42;;;;;;;24.40;18.90;;;;;;;10.68;96.71;98917.02;268949;1273;22527;-83
2023/06/16 01:56:45;;;;;;;24.00;18.00;;;;;;;10.61;97.04;98918.74;269336;1273;24236;-84
2023/06/16 02:03:33;;;;;;;22.90;18.70;;;;;;;10.55;97.13;98914.23;270794;1273;22393;-83
2023/06/16 02:09:52;;;;;;;24.80;18.90;;;;;;;10.45;97.27;98910.70;271133;1272;22504;-84
2023/06/16 02:15:54;;;;;;;21.90;15.70;;;;;;;10.42;97.97;98906.75;269711;1266;22550;-83
2023/06/16 02:21:57;;;;;;;24.00;16.90;;;;;;;10.46;98.68;98907.42;269190;1267;22531;-84
2023/06/16 02:28:03;;;;;;;21.70;16.70;;;;;;;10.52;99.24;98909.20;269162;1262;22939;-83
2023/06/16 02:34:05;;;;;;;26.30;18.30;;;;;;;10.53;99.05;98906.23;268817;1264;25233;-85
2023/06/16 02:40:08;;;;;;;23.60;16.90;;;;;;;10.52;99.30;98901.92;269080;1272;22547;-83
2023/06/16 02:46:09;;;;;;;26.20;18.40;;;;;;;10.53;99.11;98899.27;270430;1266;24206;-83
2023/06/16 02:52:13;;;;;;;27.70;18.60;;;;;;;10.39;98.54;98895.31;272584;1264;23338;-83
2023/06/16 02:58:15;;;;;;;25.00;19.00;;;;;;;10.28;98.91;98899.02;272423;1264;22210;-83
2023/06/16 03:04:17;;;;;;;23.40;18.70;;;;;;;10.21;99.24;98900.11;272225;1272;22641;-83
2023/06/16 03:10:42;;;;;;;27.60;20.70;;;;;;;10.23;99.63;98899.52;272250;1274;22334;-83
2023/06/16 03:16:48;;;;;;;24.00;18.90;;;;;;;10.20;99.61;98903.63;272373;1273;22176;-83
2023/06/16 03:22:51;;;;;;;25.90;19.80;;;;;;;10.23;99.96;98911.01;271662;1273;22553;-82
2023/06/16 03:29:13;;;;;;;27.00;19.00;;;;;;;10.19;99.74;98911.98;271925;1274;22250;-82
2023/06/16 03:35:17;;;;;;;27.30;19.30;;;;;;;10.17;99.97;98911.72;272432;1273;22256;-82
2023/06/16 03:41:39;;;;;;;24.30;19.10;;;;;;;10.23;100.00;98917.02;272505;1273;22194;-84
2023/06/16 03:48:24;;;;;;;23.60;18.30;;;;;;;10.34;100.00;98918.86;272384;1273;22963;-83
2023/06/16 03:54:30;;;;;;;25.90;19.10;;;;;;;10.52;100.00;98917.02;272479;1273;22885;-83
2023/06/16 04:00:32;;;;;;;28.00;19.90;;;;;;;10.68;100.00;98914.27;272468;1262;22217;-82
2023/06/16 04:06:55;;;;;;;23.70;17.90;;;;;;;10.80;100.00;98916.42;272634;1262;23078;-83
2023/06/16 04:12:58;;;;;;;23.90;17.80;;;;;;;10.89;100.00;98918.15;272121;1262;22486;-83
2023/06/16 04:19:02;;;;;;;26.40;18.70;;;;;;;10.97;100.00;98914.54;272184;1274;22309;-85
2023/06/16 04:25:06;;;;;;;26.40;18.40;;;;;;;11.08;100.00;98910.86;272214;1272;23317;-83
2023/06/16 04:31:09;;;;;;;25.70;19.50;;;;;;;11.18;100.00;98906.40;271818;1265;22241;-84
2023/06/16 04:37:15;;;;;;;25.40;18.90;;;;;;;11.31;100.00;98908.05;272646;1275;22245;-83
2023/06/16 04:43:55;;;;;;;27.30;20.90;;;;;;;11.45;100.00;98907.83;272114;1271;310236;-83
2023/06/16 04:50:58;;;;;;;30.90;20.60;;;;;;;11.61;100.00;98906.45;272511;1275;22192;-83
2023/06/16 04:57:40;;;;;;;34.60;22.70;;;;;;;11.87;100.00;98907.70;269177;1273;22619;-84
2023/06/16 05:03:42;;;;;;;36.60;24.10;;;;;;;12.09;100.00;98913.91;271195;1263;22395;-83
2023/06/16 05:09:44;;;;;;;38.70;25.40;;;;;;;12.31;100.00;98916.41;271468;1274;22604;-85
2023/06/16 05:15:49;;;;;;;29.30;22.00;;;;;;;12.56;100.00;98922.36;269641;1273;23323;-83
2023/06/16 05:21:52;;;;;;;31.40;22.30;;;;;;;12.81;100.00;98920.89;269607;1273;24534;-83
2023/06/16 05:28:01;;;;;;;28.50;20.10;;;;;;;13.04;100.00;98919.36;270946;1273;22659;-83
2023/06/16 05:34:25;;;;;;;31.50;22.30;;;;;;;13.27;100.00;98921.79;270029;1273;22562;-83
2023/06/16 05:40:28;;;;;;;39.00;25.40;;;;;;;13.52;100.00;98924.90;269169;1273;22291;-83
2023/06/16 05:46:30;;;;;;;37.60;24.10;;;;;;;13.76;100.00;98921.69;271596;1274;22212;-86
2023/06/16 05:52:53;;;;;;;37.80;24.20;;;;;;;14.02;100.00;98922.23;272120;1265;23141;-84
2023/06/16 05:59:15;;;;;;;29.60;20.20;;;;;;;14.31;100.00;98922.23;272406;1273;22268;-84
2023/06/16 06:05:18;;;;;;;33.60;22.40;;;;;;;14.60;100.00;98919.08;272209;1274;22479;-84
2023/06/16 06:11:42;;;;;;;37.80;23.10;;;;;;;14.92;100.00;98919.70;272303;1274;22278;-84
2023/06/16 06:18:16;;;;;;;30.80;19.50;;;;;;;15.19;100.00;98915.72;272538;1273;22326;-85
2023/06/16 06:24:20;;;;;;;25.80;19.20;;;;;;;15.45;100.00;98919.04;272340;1265;22355;-84
2023/06/16 06:30:42;;;;;;;30.60;19.00;;;;;;;15.73;99.84;98923.19;272308;1273;22300;-85
2023/06/16 06:37:05;;;;;;;25.50;18.70;;;;;;;15.94;99.55;98921.61;272128;1272;22212;-85
2023/06/16 06:43:26;;;;;;;30.10;19.30;;;;;;;16.20;98.72;98917.36;272105;1267;22397;-85
2023/06/16 06:49:31;;;;;;;30.50;20.50;;;;;;;16.44;98.17;98916.50;269616;1274;22611;-84
2023/06/16 06:55:33;;;;;;;30.20;19.30;;;;;;;16.67;97.79;98922.02;268916;1264;22653;-85
2023/06/16 07:01:35;;;;;;;31.70;21.10;;;;;;;16.83;97.16;98927.16;268850;1274;22657;-84
2023/06/16 07:07:37;;;;;;;31.10;20.80;;;;;;;17.06;96.78;98929.55;269398;1274;22561;-85
2023/06/16 07:14:01;;;;;;;29.60;21.80;;;;;;;17.43;96.29;98926.44;270231;1273;22562;-83
2023/06/16 07:20:05;;;;;;;32.10;21.40;;;;;;;17.89;95.87;98922.11;269895;1273;22532;-87
2023/06/16 07:26:07;;;;;;;26.10;18.30;;;;;;;18.36;93.65;98920.61;268893;1273;22567;-84
2023/06/16 07:32:09;;;;;;;24.70;16.30;;;;;;;18.72;92.52;98917.52;269507;1261;22541;-84
2023/06/16 07:38:11;;;;;;;29.20;19.00;;;;;;;19.13;91.64;98919.65;269079;1274;23044;-86
2023/06/16 07:44:53;;;;;;;25.40;17.50;;;;;;;19.39;90.96;98919.42;270372;1273;22544;-84
2023/06/16 07:50:54;;;;;;;18.30;14.70;;;;;;;19.80;90.36;98922.37;269942;1273;22217;-84
2023/06/16 07:56:56;;;;;;;18.70;12.80;;;;;;;20.28;88.69;98915.41;271232;1273;23011;-85
2023/06/16 08:03:06;;;;;;;26.20;13.90;;;;;;;20.52;86.99;98914.55;269509;1264;22366;-84
2023/06/16 08:09:10;;;;;;;15.30;12.80;;;;;;;20.65;86.18;98910.16;270039;1263;22534;-83
2023/06/16 08:15:11;;;;;;;18.90;12.50;;;;;;;20.70;84.87;98908.92;269304;1273;23626;-84
2023/06/16 08:21:13;;;;;;;18.60;12.10;;;;;;;20.95;83.63;98903.92;270377;1273;22198;-85
2023/06/16 08:27:35;;;;;;;17.70;13.10;;;;;;;21.07;82.30;98897.96;272252;1267;22308;-84
2023/06/16 08:33:59;;;;;;;16.20;11.60;;;;;;;21.20;82.29;98895.45;272899;1273;22196;-84
2023/06/16 08:40:21;;;;;;;12.90;10.80;;;;;;;21.29;80.99;98892.79;272823;1280;22173;-82
2023/06/16 08:46:38;;;;;;;12.40;10.40;;;;;;;21.29;78.77;98887.77;272249;1273;22348;-84
2023/06/16 08:52:41;;;;;;;16.70;10.50;;;;;;;21.32;77.20;98887.80;272440;1273;22426;-85
2023/06/16 08:58:43;;;;;;;14.80;11.20;;;;;;;21.50;76.37;98882.41;272481;1273;22324;-85
2023/06/16 09:04:46;;;;;;;12.50;10.90;;;;;;;21.49;75.30;98876.04;272557;1273;23535;-84
2023/06/16 09:11:08;;;;;;;11.60;10.40;;;;;;;21.43;74.84;98872.65;272811;1273;22227;-84
2023/06/16 09:17:10;;;;;;;13.50;11.20;;;;;;;21.37;74.09;98875.73;271490;1273;22521;-84
2023/06/16 09:23:32;;;;;;;14.80;11.90;;;;;;;21.43;73.30;98873.94;272465;1273;22323;-86
2023/06/16 09:29:33;;;;;;;15.20;11.80;;;;;;;21.65;71.17;98863.45;272558;1273;22251;-84
2023/06/16 09:35:48;;;;;;;15.60;11.80;;;;;;;21.80;71.21;98856.25;272636;1273;22186;-85
2023/06/16 09:41:57;;;;;;;13.70;11.90;;;;;;;21.95;70.48;98856.43;272645;1264;22254;-85
2023/06/16 09:48:03;;;;;;;14.30;12.80;;;;;;;22.23;68.07;98851.63;272640;1272;22231;-86
2023/06/16 09:54:05;;;;;;;14.60;12.10;;;;;;;22.50;66.96;98836.20;272429;1273;22259;-84
2023/06/16 10:00:13;;;;;;;15.10;10.50;;;;;;;22.80;66.78;98829.68;272609;1260;22759;-85
2023/06/16 10:06:36;;;;;;;13.70;11.30;;;;;;;22.92;66.17;98825.53;272516;1273;22360;-85
2023/06/16 10:12:47;;;;;;;17.50;11.20;;;;;;;22.92;65.50;98819.63;270311;1266;22565;-86
2023/06/16 10:18:50;;;;;;;15.00;11.70;;;;;;;22.83;64.39;98817.75;268881;1273;23348;-84
2023/06/16 10:24:51;;;;;;;13.50;10.10;;;;;;;22.98;64.28;98820.80;269997;1274;22615;-84
2023/06/16 10:30:53;;;;;;;11.70;10.20;;;;;;;23.19;63.32;98817.61;268801;1273;22594;-85
2023/06/16 10:36:58;;;;;;;13.50;11.60;;;;;;;23.38;62.90;98815.14;268329;1266;25093;-85
2023/06/16 10:43:09;;;;;;;17.30;11.20;;;;;;;23.27;61.90;98812.11;268117;1261;22648;-84
2023/06/16 10:50:08;;;;;;;13.90;11.10;;;;;;;23.01;60.82;98806.41;267656;1272;22853;-84
2023/06/16 10:56:36;;;;;;;15.00;11.40;;;;;;;23.09;61.31;98805.59;270425;1277;22434;-85
2023/06/16 11:03:11;;;;;;;13.20;10.50;;;;;;;23.14;60.70;98798.28;270835;1267;22586;-86
2023/06/16 11:09:13;;;;;;;18.70;11.20;;;;;;;22.92;59.27;98787.95;268638;1267;22705;-84
2023/06/16 11:15:35;;;;;;;11.10;10.00;;;;;;;22.74;58.34;98782.04;269159;1267;22690;-84
2023/06/16 11:21:58;;;;;;;11.60;9.90;;;;;;;22.86;58.20;98779.59;270934;1273;22202;-85
2023/06/16 11:28:40;;;;;;;13.00;10.10;;;;;;;22.96;58.59;98774.55;272738;1274;23433;-85
2023/06/16 11:35:49;;;;;;;10.80;9.70;;;;;;;22.87;58.66;98774.70;272464;1273;22228;-85
2023/06/16 11:42:14;;;;;;;12.50;9.80;;;;;;;22.73;58.32;98767.80;270367;1273;27673;-85
2023/06/16 11:48:16;;;;;;;12.40;10.00;;;;;;;22.71;58.48;98759.83;270557;1273;22547;-85
2023/06/16 11:54:18;;;;;;;11.60;9.60;;;;;;;22.76;57.90;98756.27;271300;1271;22272;-84
2023/06/16 12:00:21;;;;;;;11.70;10.60;;;;;;;22.74;57.47;98751.63;272394;1273;22390;-84
2023/06/16 12:06:23;;;;;;;15.80;10.90;;;;;;;22.75;56.86;98756.71;272538;1272;22519;-85
2023/06/16 12:13:45;;;;;;;12.40;8.80;;;;;;;22.72;56.77;98753.23;272609;1273;22191;-84
2023/06/16 12:20:11;;;;;;;11.00;9.60;;;;;;;22.71;57.24;98751.70;271940;1273;22361;-84
2023/06/16 12:26:33;;;;;;;10.70;9.30;;;;;;;22.65;56.87;98748.18;271671;1265;23029;-84
2023/06/16 12:32:36;;;;;;;13.30;10.40;;;;;;;22.59;56.86;98748.61;272378;1273;22221;-84
2023/06/16 12:38:46;;;;;;;10.30;9.20;;;;;;;22.66;57.37;98749.02;271809;1270;22566;-84
2023/06/16 12:44:50;;;;;;;14.70;10.70;;;;;;;22.76;57.53;98743.02;270457;1272;22544;-86
2023/06/16 12:51:21;;;;;;;11.20;9.90;;;;;;;22.74;57.76;98740.73;271866;1270;22578;-84
2023/06/16 12:57:29;;;;;;;10.30;9.20;;;;;;;22.73;58.16;98738.76;271482;1273;23896;-83
2023/06/16 13:11:11;;;;;;;15.90;10.00;;;;;;;22.85;57.76;98731.30;272003;1267;22543;-85
2023/06/16 13:17:27;;;;;;;13.00;9.20;;;;;;;23.00;57.99;98731.79;264753;1273;10002821;-84
2023/06/16 13:23:29;;;;;;;11.40;9.20;;;;;;;23.07;57.56;98729.55;272655;1272;24220;-85
2023/06/16 13:29:34;;;;;;;11.60;9.30;;;;;;;23.04;57.18;98726.98;272153;1258;22546;-85
2023/06/16 13:35:37;;;;;;;9.70;8.50;;;;;;;23.05;57.10;98724.39;270948;1274;22848;-84
2023/06/16 13:41:59;;;;;;;9.60;8.60;;;;;;;22.96;57.00;98721.98;272754;1273;22224;-85
2023/06/16 13:48:42;;;;;;;9.60;8.70;;;;;;;22.81;56.72;98720.10;272707;1275;22371;-84
2023/06/16 13:55:04;;;;;;;10.80;8.30;;;;;;;22.71;57.14;98712.24;273005;1275;22306;-83
2023/06/16 14:01:06;;;;;;;8.90;8.00;;;;;;;22.66;57.77;98707.98;271837;1273;22204;-84
2023/06/16 14:07:09;;;;;;;10.00;8.60;;;;;;;22.65;57.36;98705.39;271034;1273;22298;-84
2023/06/16 14:13:12;;;;;;;13.60;8.50;;;;;;;22.55;56.62;98703.73;271109;1271;23384;-83
2023/06/16 14:19:13;;;;;;;10.00;8.10;;;;;;;22.46;56.53;98696.99;271228;1265;22523;-83
2023/06/16 14:25:15;;;;;;;9.20;7.90;;;;;;;22.49;56.52;98691.57;270533;1272;22318;-83
2023/06/16 14:31:17;;;;;;;10.50;8.50;;;;;;;22.58;56.54;98693.02;270450;1264;22212;-84
2023/06/16 14:37:18;;;;;;;8.50;7.60;;;;;;;22.63;56.64;98691.21;272498;1262;23801;-84
2023/06/16 14:43:20;;;;;;;10.50;7.60;;;;;;;22.67;56.71;98687.63;272129;1260;22645;-84
2023/06/16 14:49:35;;;;;;;8.70;7.80;;;;;;;22.62;56.70;98682.32;269814;1258;24269;-85
2023/06/16 14:55:36;;;;;;;9.40;8.30;;;;;;;22.56;56.99;98676.94;269398;1270;22632;-84
2023/06/16 15:01:38;;;;;;;10.40;8.60;;;;;;;22.52;57.26;98669.58;269765;1266;22844;-84
2023/06/16 15:07:59;;;;;;;10.20;7.80;;;;;;;22.48;57.37;98669.51;271531;1264;23439;-84
2023/06/16 15:14:01;;;;;;;9.80;8.10;;;;;;;22.48;56.85;98661.38;270923;1273;22570;-84
2023/06/16 15:20:03;;;;;;;9.00;8.10;;;;;;;22.48;56.99;98661.14;269275;1266;24262;-84
2023/06/16 15:26:05;;;;;;;9.50;7.40;;;;;;;22.46;56.86;98657.71;269009;1262;22549;-84
2023/06/16 15:32:07;;;;;;;8.40;7.50;;;;;;;22.46;57.47;98658.98;268737;1273;22543;-85
2023/06/16 15:38:09;;;;;;;10.30;7.70;;;;;;;22.46;58.10;98652.61;269633;1273;22368;-84
2023/06/16 15:44:31;;;;;;;12.30;7.80;;;;;;;22.45;57.44;98649.21;272614;1263;22180;-86
2023/06/16 15:50:53;;;;;;;11.10;8.10;;;;;;;22.41;57.01;98646.12;273073;1267;23296;-85
2023/06/16 15:56:55;;;;;;;11.50;7.30;;;;;;;22.37;57.24;98648.23;272496;1272;22323;-84
2023/06/16 16:03:13;;;;;;;8.50;7.60;;;;;;;22.27;56.84;98643.86;272893;1273;22185;-84
2023/06/16 16:09:15;;;;;;;10.30;7.50;;;;;;;22.22;57.08;98638.82;272461;1272;22383;-84
2023/06/16 16:15:37;;;;;;;8.90;7.30;;;;;;;22.23;56.81;98638.98;272885;1262;22261;-84
2023/06/16 16:21:39;;;;;;;7.80;7.00;;;;;;;22.25;56.75;98641.40;272306;1273;24285;-84
2023/06/16 16:27:41;;;;;;;8.00;6.80;;;;;;;22.28;56.74;98640.08;263123;1273;10001827;-84
2023/06/16 16:33:44;;;;;;;7.80;6.30;;;;;;;22.34;56.73;98635.81;272799;1259;22390;-84
2023/06/16 16:39:46;;;;;;;10.70;7.70;;;;;;;22.43;56.76;98639.61;272300;1273;22447;-85
2023/06/16 16:45:47;;;;;;;9.10;7.70;;;;;;;22.37;56.63;98644.62;268174;1272;5438376;-85
2023/06/16 16:51:49;;;;;;;12.30;7.70;;;;;;;22.26;56.92;98642.46;272327;1273;22331;-85
2023/06/16 16:57:51;;;;;;;7.60;6.90;;;;;;;22.27;57.21;98640.66;272344;1273;22232;-84
2023/06/16 17:04:33;;;;;;;8.00;7.10;;;;;;;22.28;57.07;98645.81;272173;1257;22211;-85
2023/06/16 17:10:52;;;;;;;9.60;8.20;;;;;;;22.16;57.28;98645.69;272388;1273;22241;-85
2023/06/16 17:17:03;;;;;;;12.50;7.60;;;;;;;22.05;57.41;98644.08;272477;1273;22216;-84
2023/06/16 17:23:05;;;;;;;9.80;7.30;;;;;;;21.96;57.50;98643.61;272144;1264;23377;-85
2023/06/16 17:29:28;;;;;;;10.10;7.80;;;;;;;21.89;57.76;98641.67;272319;1274;22229;-86
2023/06/16 17:35:31;;;;;;;11.00;8.00;;;;;;;21.81;58.02;98636.25;271775;1273;22302;-85
2023/06/16 17:41:33;;;;;;;7.80;7.00;;;;;;;21.72;58.12;98632.20;271642;1273;22546;-84
2023/06/16 17:47:46;;;;;;;9.10;8.20;;;;;;;21.63;58.04;98633.60;270754;1265;23956;-85
2023/06/16 17:53:48;;;;;;;8.60;7.70;;;;;;;21.50;58.36;98634.02;271886;1273;22560;-86
2023/06/16 17:59:50;;;;;;;11.90;8.40;;;;;;;21.36;58.17;98634.73;269919;1260;22529;-85
2023/06/16 18:05:51;;;;;;;11.50;8.40;;;;;;;21.26;58.68;98632.08;270865;1274;22259;-84
2023/06/16 18:11:54;;;;;;;9.90;8.00;;;;;;;21.18;59.01;98626.09;271506;1273;22313;-85
2023/06/16 18:17:56;;;;;;;9.40;7.80;;;;;;;21.08;58.99;98628.08;270014;1274;22308;-84
2023/06/16 18:23:58;;;;;;;11.50;8.40;;;;;;;20.99;59.52;98630.86;271567;1264;22904;-85
2023/06/16 18:30:01;;;;;;;9.70;7.80;;;;;;;20.87;59.96;98627.88;270710;1271;22535;-83
2023/06/16 18:36:03;;;;;;;14.30;8.20;;;;;;;20.69;61.12;98626.58;271760;1267;23404;-85
2023/06/16 18:42:05;;;;;;;10.10;8.30;;;;;;;20.46;62.26;98625.02;272258;1265;22210;-83
2023/06/16 18:48:47;;;;;;;11.50;8.30;;;;;;;20.24;63.69;98626.74;271532;1271;22333;-84
2023/06/16 18:55:34;;;;;;;11.80;8.40;;;;;;;19.96;64.21;98629.54;272593;1268;24190;-83
2023/06/16 19:01:35;;;;;;;14.40;10.40;;;;;;;19.64;65.09;98627.21;272502;1273;22771;-84
2023/06/16 19:07:37;;;;;;;13.60;11.00;;;;;;;19.36;65.91;98631.08;271878;1268;22654;-85
2023/06/16 19:13:40;;;;;;;18.00;11.70;;;;;;;19.09;66.67;98639.79;272631;1270;23440;-84
2023/06/16 19:20:12;;;;;;;14.00;11.70;;;;;;;18.81;67.32;98640.56;272803;1274;22224;-84
2023/06/16 19:26:31;;;;;;;15.70;12.30;;;;;;;18.51;68.56;98648.73;272325;1272;23075;-84
2023/06/16 19:32:38;;;;;;;15.90;12.50;;;;;;;18.26;69.23;98651.03;272296;1273;22332;-85
2023/06/16 19:38:43;;;;;;;15.70;11.30;;;;;;;18.02;69.97;98658.90;272435;1274;22352;-83
2023/06/16 19:45:05;;;;;;;17.30;13.70;;;;;;;17.79;70.79;98661.25;272540;1273;22236;-83
2023/06/16 19:51:07;;;;;;;18.40;13.40;;;;;;;17.59;71.57;98654.77;272349;1273;23131;-84
2023/06/16 19:57:09;;;;;;;24.00;15.70;;;;;;;17.30;72.54;98659.09;272308;1273;22368;-85
2023/06/16 20:03:11;;;;;;;20.80;13.90;;;;;;;17.01;73.49;98659.60;272391;1262;22267;-83
2023/06/16 20:09:13;;;;;;;20.50;14.60;;;;;;;16.97;74.37;98660.55;272030;1272;22210;-84
2023/06/16 20:15:18;;;;;;;20.10;14.40;;;;;;;16.93;74.83;98658.90;272367;1262;22265;-84
2023/06/16 20:21:20;;;;;;;19.20;15.30;;;;;;;16.75;75.43;98657.34;272239;1273;22415;-83
2023/06/16 20:28:02;;;;;;;18.70;16.20;;;;;;;16.48;76.07;98653.25;272604;1274;23381;-84
2023/06/16 20:34:05;;;;;;;19.10;16.00;;;;;;;16.29;76.77;98651.76;272352;1273;22310;-84
2023/06/16 20:40:09;;;;;;;21.10;16.00;;;;;;;16.07;77.76;98652.36;272552;1266;24348;-83
2023/06/16 20:46:11;;;;;;;41.90;18.80;;;;;;;15.85;78.46;98657.30;272521;1274;22347;-84
2023/06/16 20:52:12;;;;;;;22.10;18.50;;;;;;;15.69;79.12;98653.41;273093;1266;22224;-84
2023/06/16 20:58:16;;;;;;;18.70;16.70;;;;;;;15.58;79.72;98651.69;272497;1274;22327;-83
2023/06/16 21:04:21;;;;;;;25.20;19.50;;;;;;;15.45;80.38;98652.69;272004;1272;22466;-84
2023/06/16 21:10:24;;;;;;;21.00;17.20;;;;;;;15.35;80.98;98655.23;272086;1274;22385;-84
2023/06/16 21:16:28;;;;;;;25.30;20.60;;;;;;;15.19;81.50;98657.48;272631;1274;22677;-84
2023/06/16 21:22:30;;;;;;;25.50;19.70;;;;;;;15.04;82.00;98665.85;271326;1273;23390;-85
2023/06/16 21:28:32;;;;;;;27.80;20.50;;;;;;;14.90;82.38;98661.94;269197;1273;22567;-83
2023/06/16 21:34:34;;;;;;;31.20;22.20;;;;;;;14.66;82.87;98661.64;269029;1271;22644;-83
2023/06/16 21:40:35;;;;;;;28.70;21.40;;;;;;;14.63;84.34;98656.95;269273;1267;22582;-83
2023/06/16 21:46:38;;;;;;;35.80;24.80;;;;;;;14.56;84.54;98654.02;269789;1264;22728;-83
2023/06/16 21:52:41;;;;;;;23.60;18.60;;;;;;;14.46;85.05;98652.09;270483;1272;22936;-83
2023/06/16 21:58:43;;;;;;;30.00;20.70;;;;;;;14.30;85.61;98671.05;269933;1273;22622;-83
2023/06/16 22:04:45;;;;;;;27.80;21.60;;;;;;;14.28;86.59;98682.39;269746;1271;23707;-83
2023/06/16 22:10:47;;;;;;;31.40;23.30;;;;;;;14.29;87.22;98682.77;269547;1273;22574;-83
2023/06/16 22:16:55;;;;;;;30.30;22.80;;;;;;;14.25;87.56;98680.27;269085;1272;25316;-84
2023/06/16 22:22:56;;;;;;;;;;;;;;;14.23;88.14;98685.71;271224;1267;22489;-83
2023/06/16 22:29:18;;;;;;;33.80;24.90;;;;;;;14.19;88.21;98677.78;272609;1273;22239;-83
2023/06/16 22:35:20;;;;;;;33.00;25.90;;;;;;;14.06;88.40;98670.27;272549;1273;22235;-83
2023/06/16 22:41:22;;;;;;;35.90;25.80;;;;;;;13.95;88.27;98665.71;272888;1281;23499;-82
2023/06/16 22:47:24;;;;;;;30.50;24.10;;;;;;;13.82;88.23;98662.75;270150;1274;22264;-84
2023/06/16 22:53:47;;;;;;;37.20;28.00;;;;;;;13.76;89.32;98654.85;272421;1274;22213;-83
2023/06/16 22:59:48;;;;;;;38.40;30.50;;;;;;;13.64;89.34;98650.38;272569;1275;22222;-83
2023/06/16 23:05:50;;;;;;;36.90;27.40;;;;;;;13.47;89.66;98643.09;272393;1274;22340;-84
2023/06/16 23:12:12;;;;;;;33.60;26.60;;;;;;;13.45;91.26;98640.67;272988;1278;22216;-83
2023/06/16 23:18:35;;;;;;;28.80;24.80;;;;;;;13.56;92.16;98642.65;272607;1274;22248;-83
2023/06/16 23:24:36;;;;;;;34.90;25.50;;;;;;;13.55;91.98;98645.48;272451;1274;22276;-83
2023/06/16 23:30:38;;;;;;;32.50;24.40;;;;;;;13.46;91.60;98647.10;272207;1263;22211;-83
2023/06/16 23:37:00;;;;;;;31.60;24.90;;;;;;;13.38;92.37;98643.94;271437;1271;22216;-82
2023/06/16 23:43:44;;;;;;;29.20;24.40;;;;;;;13.35;93.03;98642.39;272741;1281;23097;-83
2023/06/16 23:49:45;;;;;;;31.90;25.10;;;;;;;13.32;93.35;98652.38;272358;1273;22332;-83
2023/06/16 23:55:48;;;;;;;29.00;23.00;;;;;;;13.28;93.82;98655.63;272371;1274;22351;-84
